Terminal Aerodrome Forecast
Issued by NWS

Home | Current Version | Previous Version | Text Only | Print | Product List | Glossary On
Versions: 1 2 3 4 5 6 7 8 9 10 11 12 13 14 15 16 17 18 19
234
FTUS43 KMQT 281514 AAA
TAFCMX
TAF AMD
KCMX 281514Z 2815/0112 09003KT 1/4SM -SN FG OVC008
     FM281700 04005KT 2SM -RASN BR OVC003
     FM282200 03013G21KT 2SM -SN BR OVC010
     FM010200 03015G25KT 5SM -SN OVC012
     FM010600 03016G25KT 6SM -SHSN BLSN OVC015=

USA.gov is the U.S. government's official web portal to all federal, state and local government web resources and services.